Mountain Iron, Minnesota
Current Conditions -  °F | °C
As of 5:11 AM on Thursday 23 Oct 2014 (Local Time) from KEVM Reporting Station
Moderate Rain Moderate Rain  
Wind Chill: 45°   Ceiling: 1500
Heat Index: 45°   Visibility: 10mi
Dew Point: 43°   Wind: 0mph
Humidity: 93%   Direction: NA
Pressure: 29.95"   Gusts: NA
Location:  47.53°N, 92.62°W
Report Text: KEVM 231011Z AUTO 00000KT 10SM RA BKN015 07/06 A2995 RMK AO2
Loading
Personal Weather Stations






























Interactive Weather Map
Tropical Storm Tracking
New forecast layout! Learn more

10-Day Weather Forecast

Advertisements
Track Severe Weather on mobile